Conway, NH

10:40 AM EST on February 14, 2016 (GMT -0500)
Pine Tree School | | Change Station
CLOSE
Current Station
Personal Weather Station
Location: Center Conway, NH
Elevation: 450 ft
Nearby Weather Stations

Elev 450 ft 43.99 °N, 71.06 °W | Updated 29 minutes ago

Partly Cloudy
Partly Cloudy
4.3 °F
Feels Like 4 °F
N
2.0
Wind Variable Wind from SSE
Gusts 8.0 mph

Today
High -- | Low -- °F
--% Chance of Precip.
Yesterday
High -- | Low -- °F
Precip. -- in
Pressure 30.30 in
Visibility 10.0 miles
Clouds Clear
Windchill 4 °F
Dew Point -24 °F
Humidity 25%
Rainfall Not available.
Snow Depth Not available.
6:45 AM 5:11 PM
Waxing Crescent, 42% visible
METAR KIZG 141454Z AUTO VRB03KT 10SM CLR M17/M29 A3025 RMK AO2 SLP260 T11721294 51015
Pressure 30.30 in
Visibility 10.0 miles
Clouds Clear
Windchill 4 °F
Dew Point -24 °F
Humidity 25%
Rainfall Not available.
Snow Depth Not available.
6:45 AM 5:11 PM
Waxing Crescent, 42% visible
METAR KIZG 141454Z AUTO VRB03KT 10SM CLR M17/M29 A3025 RMK AO2 SLP260 T11721294 51015

10-Day Weather Forecast

Almanac

Astronomy

Feb. 14, 2016 Rise Set
Actual Time
Civil Twilight
Nautical Twilight
Astronomical Twilight
Moon
Length of Visible Light
Length of Day
Tomorrow will be .
, % of the Moon is Illuminated

Today's Extremes

State Highs State Lows

Community

WunderPhotos

Upload Photos

1,892,795 photos uploaded!

WunderBlog® & News

Nearby

Air Quality

  Air Quality AQ Index Pollutant
Not available.

Snow Depth

Station Depth Elevation

Earthquake Activity

City Distance Mag. Time & Date
Minimum magnitude displayed is 2.5.

Coastal Water Temperatures

Place Temperature

Stations

Nearby Weather Stations

Station Location Temp. Windchill Dew Point Humidity Wind Precip. Elev Updated Type
                   

Watches & Warnings

There are currently no watches in effect.